Time;durP1;ratioP1;P1;durP2;ratioP2;P2;SDS_P1;SDS_P2;PMS_P1;PMS_P2;Temp;Humidity;BMP_temperature;BMP_pressure;BME280_temperature;BME280_humidity;BME280_pressure;Samples;Min_cycle;Max_cycle;Signal;HPM_P1;HPM_P2
2022/10/01 00:00:52;;;;;;;5.45;2.60;;;;;;;17.25;50.19;94259.00;5049461;28;20040;-78
2022/10/01 00:03:19;;;;;;;2.58;2.28;;;;;;;17.49;50.50;94285.75;5050063;28;20483;-76
2022/10/01 00:05:45;;;;;;;3.55;2.38;;;;;;;17.25;50.27;94247.44;5046861;28;20042;-76
2022/10/01 00:08:15;;;;;;;2.92;2.60;;;;;;;17.51;50.30;94293.44;5053035;28;20494;-79
2022/10/01 00:10:42;;;;;;;2.20;1.95;;;;;;;17.45;50.12;94282.16;5048868;28;20594;-78
2022/10/01 00:13:08;;;;;;;3.08;2.08;;;;;;;17.43;50.37;94281.75;5048881;28;20029;-77
2022/10/01 00:15:34;;;;;;;5.40;2.75;;;;;;;17.25;50.62;94266.28;5057285;28;20510;-76
2022/10/01 00:18:00;;;;;;;2.20;2.00;;;;;;;17.34;50.46;94272.28;5049024;28;20051;-77
2022/10/01 00:20:26;;;;;;;3.00;2.30;;;;;;;17.40;50.57;94282.44;5047732;28;20699;-78
2022/10/01 00:22:51;;;;;;;2.42;2.00;;;;;;;17.39;50.44;94280.88;5050958;28;20053;-76
2022/10/01 00:25:17;;;;;;;2.50;2.20;;;;;;;17.28;50.57;94262.88;5054108;28;20078;-77
2022/10/01 00:27:45;;;;;;;3.97;2.42;;;;;;;17.09;51.04;94260.81;5050026;28;20035;-76
2022/10/01 00:30:11;;;;;;;2.60;1.90;;;;;;;17.27;50.82;94290.88;5051166;28;20024;-77
2022/10/01 00:32:39;;;;;;;5.28;2.50;;;;;;;17.13;50.72;94265.19;5050569;28;20482;-76
2022/10/01 00:35:08;;;;;;;3.40;2.35;;;;;;;17.01;51.04;94251.78;5051476;28;20795;-76
2022/10/01 00:37:37;;;;;;;2.55;2.30;;;;;;;17.23;51.11;94274.66;5050445;28;20109;-77
2022/10/01 00:40:06;;;;;;;3.65;2.33;;;;;;;17.01;51.42;94243.72;5051790;28;20806;-77
2022/10/01 00:42:31;;;;;;;2.55;2.05;;;;;;;17.10;51.49;94273.94;5050718;28;20029;-78
2022/10/01 00:45:01;;;;;;;5.03;2.20;;;;;;;17.04;51.37;94269.91;5051929;28;20024;-77
2022/10/01 00:47:48;;;;;;;3.53;3.15;;;;;;;17.16;51.29;94267.19;5049106;28;20051;-76
2022/10/01 00:50:27;;;;;;;5.75;2.70;;;;;;;17.17;51.48;94267.97;5046046;28;20024;-77
2022/10/01 00:53:05;;;;;;;2.80;2.50;;;;;;;17.10;51.44;94279.31;5058592;28;20115;-78
2022/10/01 00:55:40;;;;;;;3.25;2.45;;;;;;;16.88;51.40;94255.63;5051724;28;20379;-77
2022/10/01 00:58:09;;;;;;;3.50;2.53;;;;;;;16.96;51.48;94262.00;5065019;28;20022;-77
2022/10/01 01:00:36;;;;;;;6.50;2.33;;;;;;;16.95;51.75;94271.19;5050189;28;20027;-77
2022/10/01 01:03:03;;;;;;;2.83;2.28;;;;;;;16.85;51.95;94267.06;5052866;28;20050;-78
2022/10/01 01:05:29;;;;;;;3.05;2.53;;;;;;;16.81;52.04;94243.94;5049548;28;20119;-78
2022/10/01 01:07:55;;;;;;;3.42;2.22;;;;;;;17.07;51.71;94271.13;5050774;28;20020;-77
2022/10/01 01:10:41;;;;;;;4.70;2.92;;;;;;;16.89;52.00;94253.72;5051427;28;20086;-77
2022/10/01 01:13:21;;;;;;;3.72;2.53;;;;;;;17.02;51.68;94249.88;5051461;28;20506;-76
2022/10/01 01:16:01;;;;;;;4.00;2.42;;;;;;;17.03;51.69;94252.22;5053351;28;20023;-77
2022/10/01 01:18:39;;;;;;;6.70;2.72;;;;;;;17.01;51.92;94249.09;5050244;28;20025;-78
2022/10/01 01:21:07;;;;;;;4.28;3.08;;;;;;;17.09;51.93;94261.59;5047078;28;20023;-76
2022/10/01 01:23:49;;;;;;;3.75;2.25;;;;;;;17.11;51.57;94259.34;5060178;28;20044;-76
2022/10/01 01:26:44;;;;;;;2.50;2.30;;;;;;;17.12;51.96;94263.59;5048548;28;20079;-76
2022/10/01 01:29:20;;;;;;;2.40;2.20;;;;;;;17.11;51.47;94264.72;5048940;28;20024;-77
2022/10/01 01:31:47;;;;;;;2.97;2.50;;;;;;;16.88;51.50;94228.78;5052134;28;20042;-76
2022/10/01 01:34:20;;;;;;;3.30;2.85;;;;;;;16.99;51.82;94251.34;5050935;28;20054;-77
2022/10/01 01:36:53;;;;;;;2.80;2.25;;;;;;;17.06;51.76;94261.53;5051222;28;20025;-78
2022/10/01 01:39:21;;;;;;;5.97;2.38;;;;;;;16.88;52.20;94260.22;5052282;28;20094;-77
2022/10/01 01:41:54;;;;;;;4.28;2.35;;;;;;;16.77;52.19;94245.75;5047070;28;20028;-78
2022/10/01 01:44:24;;;;;;;5.35;2.60;;;;;;;16.87;52.10;94270.19;5050589;28;20091;-77
2022/10/01 01:46:55;;;;;;;4.28;3.00;;;;;;;16.86;52.14;94267.88;5047910;28;20025;-78
2022/10/01 01:49:22;;;;;;;4.72;3.20;;;;;;;16.70;52.08;94249.78;5050475;28;20024;-76
2022/10/01 01:52:13;;;;;;;3.13;2.78;;;;;;;16.87;52.29;94270.19;5046712;28;20028;-78
2022/10/01 01:54:39;;;;;;;2.83;2.10;;;;;;;16.74;52.37;94244.50;5050951;28;20071;-76
2022/10/01 01:57:06;;;;;;;2.60;2.25;;;;;;;16.88;52.16;94260.22;5048741;28;20554;-77
2022/10/01 01:59:32;;;;;;;3.15;2.15;;;;;;;16.70;52.44;94239.03;5066092;28;20024;-78
2022/10/01 02:01:58;;;;;;;2.63;2.38;;;;;;;16.82;52.07;94259.69;5055091;28;20017;-77
2022/10/01 02:04:35;;;;;;;2.88;2.60;;;;;;;16.48;52.34;94230.69;5052427;28;20967;-77
2022/10/01 02:07:15;;;;;;;3.42;2.70;;;;;;;16.41;52.76;94238.56;5048345;28;20484;-78
2022/10/01 02:09:56;;;;;;;5.13;2.95;;;;;;;16.73;52.68;94291.28;5049384;28;20033;-78
2022/10/01 02:12:41;;;;;;;3.08;2.78;;;;;;;16.42;52.64;94248.97;5051431;28;20772;-78
2022/10/01 02:15:30;;;;;;;5.13;2.75;;;;;;;16.48;53.32;94287.06;5049972;28;20131;-76
2022/10/01 02:18:08;;;;;;;2.92;2.50;;;;;;;16.47;53.19;94288.22;5050297;28;20508;-76
2022/10/01 02:20:40;;;;;;;3.88;2.97;;;;;;;16.47;53.28;94269.41;5050457;28;20060;-77
2022/10/01 02:23:14;;;;;;;4.70;2.88;;;;;;;16.44;53.33;94275.44;5047987;28;20052;-76
2022/10/01 02:25:45;;;;;;;5.47;3.00;;;;;;;16.52;53.24;94298.72;5055003;28;20639;-77
2022/10/01 02:28:15;;;;;;;5.75;2.78;;;;;;;16.35;53.34;94275.59;5051340;28;20029;-76
2022/10/01 02:30:43;;;;;;;2.97;2.60;;;;;;;16.44;53.36;94299.63;5050288;28;20029;-77
2022/10/01 02:33:12;;;;;;;3.25;2.42;;;;;;;16.32;53.41;94265.53;5048053;28;20036;-76
2022/10/01 02:35:42;;;;;;;3.20;2.88;;;;;;;16.25;53.50;94254.53;5048019;28;20028;-78
2022/10/01 02:38:09;;;;;;;3.83;2.45;;;;;;;16.52;53.60;94280.72;5051167;28;20028;-77
2022/10/01 02:40:40;;;;;;;3.88;2.83;;;;;;;16.04;54.65;94265.41;5049006;28;20045;-75
2022/10/01 02:43:14;;;;;;;3.55;2.63;;;;;;;16.30;54.46;94306.13;5058674;28;20479;-77
2022/10/01 02:45:44;;;;;;;3.55;3.22;;;;;;;16.45;54.34;94303.88;5063559;28;20032;-78
2022/10/01 02:48:11;;;;;;;2.83;2.42;;;;;;;16.54;54.09;94304.53;5049219;28;20051;-77
2022/10/01 02:50:48;;;;;;;5.25;2.40;;;;;;;16.53;54.22;94293.00;5056300;28;20059;-76
2022/10/01 02:53:37;;;;;;;3.63;2.83;;;;;;;16.65;54.39;94311.00;5048811;28;20517;-76
2022/10/01 02:56:04;;;;;;;4.75;2.72;;;;;;;16.55;54.33;94298.03;5048719;28;20037;-77
2022/10/01 02:58:30;;;;;;;4.00;2.30;;;;;;;16.63;54.19;94295.22;5048127;28;20081;-77
2022/10/01 03:00:55;;;;;;;3.63;2.90;;;;;;;16.79;54.24;94316.78;5051227;28;20029;-78
2022/10/01 03:03:22;;;;;;;4.30;2.58;;;;;;;16.75;54.30;94308.63;5048635;28;20115;-77
2022/10/01 03:05:47;;;;;;;6.93;3.13;;;;;;;16.69;53.56;94274.28;5050654;28;20608;-77
2022/10/01 03:08:13;;;;;;;2.83;2.38;;;;;;;16.87;53.51;94285.53;5049017;28;20502;-78
2022/10/01 03:10:38;;;;;;;3.70;2.63;;;;;;;16.87;53.57;94280.94;5049404;28;20020;-76
2022/10/01 03:13:06;;;;;;;3.55;2.63;;;;;;;16.96;53.63;94295.03;5051566;28;20037;-77
2022/10/01 03:15:31;;;;;;;3.75;3.05;;;;;;;16.94;53.47;94281.16;5053863;28;20186;-77
2022/10/01 03:17:57;;;;;;;5.15;3.03;;;;;;;16.95;53.43;94277.34;5051800;28;20519;-76
2022/10/01 03:20:22;;;;;;;3.60;2.60;;;;;;;17.02;53.41;94277.53;5054581;28;20107;-78
2022/10/01 03:22:48;;;;;;;2.95;2.35;;;;;;;16.96;53.56;94278.91;5049395;28;20052;-76
2022/10/01 03:25:14;;;;;;;5.28;2.55;;;;;;;17.07;53.37;94298.78;5054063;28;20654;-77
2022/10/01 03:27:40;;;;;;;4.53;2.92;;;;;;;16.78;53.65;94288.34;5052903;28;20044;-76
2022/10/01 03:30:06;;;;;;;4.82;3.08;;;;;;;16.94;53.47;94328.72;5053140;28;20032;-77
2022/10/01 03:32:31;;;;;;;3.25;2.63;;;;;;;16.83;53.19;94296.16;5053422;28;20056;-78
2022/10/01 03:34:57;;;;;;;3.65;2.92;;;;;;;16.92;53.39;94322.91;5055356;28;20187;-77
2022/10/01 03:37:23;;;;;;;3.90;3.33;;;;;;;16.90;53.51;94312.50;5051654;28;20028;-78
2022/10/01 03:39:48;;;;;;;4.90;2.95;;;;;;;16.88;53.47;94295.94;5057868;28;20115;-76
2022/10/01 03:42:15;;;;;;;4.50;3.00;;;;;;;16.82;53.63;94288.47;5050745;28;20031;-77
2022/10/01 03:44:41;;;;;;;3.33;3.03;;;;;;;16.83;53.44;94300.75;5053880;28;20024;-77
2022/10/01 03:47:06;;;;;;;3.40;3.10;;;;;;;17.02;53.43;94314.34;5068243;28;20548;-77
2022/10/01 03:49:33;;;;;;;3.95;3.05;;;;;;;16.83;53.43;94285.44;5055842;28;20020;-77
2022/10/01 03:51:58;;;;;;;4.93;3.88;;;;;;;16.86;53.52;94286.66;5051163;28;20031;-77
2022/10/01 03:54:24;;;;;;;5.22;3.17;;;;;;;16.92;53.60;94287.97;5051085;28;20483;-77
2022/10/01 03:56:49;;;;;;;4.63;3.15;;;;;;;16.94;53.58;94302.63;5053700;28;20044;-77
2022/10/01 03:59:15;;;;;;;5.40;2.85;;;;;;;16.88;53.20;94285.19;5051881;28;20112;-78
2022/10/01 04:01:40;;;;;;;5.80;3.53;;;;;;;16.84;53.25;94265.50;5051908;28;20479;-77
2022/10/01 04:04:05;;;;;;;5.85;2.83;;;;;;;16.89;53.31;94256.44;5054982;28;20021;-78
2022/10/01 04:06:31;;;;;;;3.70;3.08;;;;;;;16.71;53.20;94229.06;5048296;28;20027;-78
2022/10/01 04:08:57;;;;;;;8.43;4.30;;;;;;;16.69;53.25;94244.75;5050296;28;20082;-78
2022/10/01 04:11:23;;;;;;;7.90;3.45;;;;;;;16.76;53.32;94263.75;5051418;28;20316;-78
2022/10/01 04:13:48;;;;;;;4.60;3.28;;;;;;;16.73;53.27;94286.69;5055111;28;20278;-77
2022/10/01 04:16:14;;;;;;;4.22;3.40;;;;;;;16.52;53.31;94253.09;5049175;28;20032;-77
2022/10/01 04:18:40;;;;;;;5.60;3.60;;;;;;;16.58;53.35;94259.75;5053075;28;20020;-77
2022/10/01 04:21:05;;;;;;;6.18;3.53;;;;;;;16.57;53.58;94277.00;5049267;28;20646;-77
2022/10/01 04:23:31;;;;;;;4.88;4.05;;;;;;;16.65;53.60;94301.03;5051829;28;20055;-78
2022/10/01 04:26:01;;;;;;;3.58;3.25;;;;;;;16.54;53.59;94301.84;5050098;28;20670;-76
2022/10/01 04:28:27;;;;;;;7.20;3.80;;;;;;;16.30;54.38;94308.81;5053586;28;20602;-77
2022/10/01 04:31:23;;;;;;;6.95;3.90;;;;;;;16.18;54.67;94270.44;5047004;28;20843;-77
2022/10/01 04:33:37;;;;;;;;;;;;;;;16.27;54.88;94298.72;5050940;28;20035;-77
2022/10/01 04:36:03;;;;;;;5.85;4.05;;;;;;;16.07;55.35;94270.09;5052393;28;19913;-77
2022/10/01 04:38:28;;;;;;;4.63;3.92;;;;;;;16.17;54.78;94275.03;5051121;28;20444;-76
2022/10/01 04:40:54;;;;;;;5.63;3.45;;;;;;;16.39;54.52;94278.38;5052625;28;20470;-75
2022/10/01 04:43:19;;;;;;;6.05;3.88;;;;;;;16.30;54.54;94281.97;5049700;28;20033;-77
2022/10/01 04:45:44;;;;;;;5.45;3.83;;;;;;;16.35;54.97;94280.94;5049380;28;20716;-77
2022/10/01 04:48:10;;;;;;;6.25;3.70;;;;;;;16.23;54.84;94262.91;5049654;28;20021;-77
2022/10/01 04:50:36;;;;;;;6.32;4.15;;;;;;;16.47;54.96;94293.59;5047486;28;20035;-77
2022/10/01 04:53:01;;;;;;;5.50;3.25;;;;;;;16.52;54.99;94304.09;5050776;28;20031;-77
2022/10/01 04:55:26;;;;;;;4.55;3.38;;;;;;;16.55;55.03;94306.09;5049127;28;20021;-76
2022/10/01 04:57:52;;;;;;;3.17;2.88;;;;;;;16.64;55.01;94304.06;5050618;28;20033;-75
2022/10/01 05:00:20;;;;;;;4.43;3.38;;;;;;;16.70;54.61;94310.75;5050477;28;20033;-77
2022/10/01 05:02:51;;;;;;;4.75;4.13;;;;;;;16.52;55.25;94301.41;5049032;28;20025;-77
2022/10/01 05:05:18;;;;;;;11.93;5.57;;;;;;;16.65;54.75;94316.38;5049611;28;20037;-77
2022/10/01 05:07:44;;;;;;;8.68;4.88;;;;;;;16.64;54.58;94320.16;5048956;28;20028;-77
2022/10/01 05:10:19;;;;;;;7.53;4.40;;;;;;;16.80;54.69;94333.69;5048301;28;20020;-76
2022/10/01 05:12:45;;;;;;;9.63;4.50;;;;;;;16.50;55.33;94342.00;5051457;28;20430;-77
2022/10/01 05:15:11;;;;;;;8.43;4.70;;;;;;;16.59;55.16;94349.94;5050040;28;20029;-76
2022/10/01 05:17:36;;;;;;;10.88;4.80;;;;;;;16.67;54.98;94341.00;5047810;28;20585;-77
2022/10/01 05:20:04;;;;;;;8.00;5.40;;;;;;;16.73;54.78;94328.88;5051823;28;20111;-77
2022/10/01 05:22:30;;;;;;;4.35;3.78;;;;;;;16.56;54.87;94307.66;5047210;28;20032;-76
2022/10/01 05:24:57;;;;;;;5.45;3.90;;;;;;;16.62;54.83;94301.69;5049274;28;20020;-77
2022/10/01 05:27:23;;;;;;;7.55;4.28;;;;;;;16.66;54.91;94310.66;5050576;28;20080;-77
2022/10/01 05:29:48;;;;;;;7.38;4.65;;;;;;;16.81;55.36;94327.97;5048960;28;20625;-77
2022/10/01 05:32:14;;;;;;;5.80;4.18;;;;;;;16.90;55.13;94320.56;5047547;28;20085;-77
2022/10/01 05:34:40;;;;;;;5.20;3.88;;;;;;;17.02;55.76;94350.06;5049351;28;20502;-77
2022/10/01 05:37:05;;;;;;;6.65;4.28;;;;;;;16.98;55.16;94314.25;5047077;28;20021;-76
2022/10/01 05:39:31;;;;;;;6.00;4.50;;;;;;;16.64;55.61;94266.47;5048752;28;20082;-76
2022/10/01 05:41:58;;;;;;;4.35;3.65;;;;;;;17.03;55.88;94321.31;5047284;28;20021;-77
2022/10/01 05:44:24;;;;;;;7.80;4.88;;;;;;;17.19;56.04;94330.25;5049177;28;20090;-77
2022/10/01 05:46:51;;;;;;;11.32;4.60;;;;;;;17.17;55.87;94314.44;5045367;28;20120;-76
2022/10/01 05:49:17;;;;;;;11.07;5.60;;;;;;;17.13;55.72;94296.63;5048738;28;20024;-76
2022/10/01 05:51:45;;;;;;;6.90;4.60;;;;;;;17.29;55.72;94334.34;5047304;28;20526;-76
2022/10/01 05:54:11;;;;;;;9.38;5.25;;;;;;;17.24;55.70;94305.03;5050584;28;20021;-76
2022/10/01 05:56:37;;;;;;;10.55;5.75;;;;;;;17.34;55.61;94313.38;5049764;28;20483;-76
2022/10/01 05:59:03;;;;;;;15.13;5.60;;;;;;;17.32;55.38;94318.31;5050649;28;20121;-76
2022/10/01 06:01:30;;;;;;;7.75;5.60;;;;;;;17.20;56.34;94339.09;5049919;28;20028;-76
2022/10/01 06:03:55;;;;;;;9.60;5.50;;;;;;;17.06;56.69;94316.00;5049013;28;20028;-77
2022/10/01 06:06:22;;;;;;;13.48;4.88;;;;;;;17.12;56.81;94346.91;5048666;28;20439;-77
2022/10/01 06:08:47;;;;;;;10.35;5.15;;;;;;;17.13;57.42;94320.81;5051034;28;20414;-76
2022/10/01 06:11:13;;;;;;;9.60;4.85;;;;;;;17.04;57.44;94317.50;5049972;28;20025;-77
2022/10/01 06:13:43;;;;;;;6.47;4.55;;;;;;;17.10;57.60;94343.00;5050083;28;20070;-77
2022/10/01 06:16:09;;;;;;;8.65;4.93;;;;;;;16.75;57.49;94299.78;5050080;28;20083;-76
2022/10/01 06:18:35;;;;;;;6.70;4.72;;;;;;;17.10;57.37;94359.94;5046526;28;20088;-76
2022/10/01 06:21:00;;;;;;;7.50;5.55;;;;;;;17.18;56.78;94358.25;5044152;28;20099;-76
2022/10/01 06:23:26;;;;;;;9.27;6.15;;;;;;;17.33;56.55;94380.91;5047340;28;20053;-77
2022/10/01 06:25:52;;;;;;;11.15;6.13;;;;;;;17.15;55.81;94357.03;5046298;28;20695;-77
2022/10/01 06:28:18;;;;;;;12.52;5.30;;;;;;;17.13;55.61;94353.06;5047859;28;20473;-78
2022/10/01 06:30:43;;;;;;;9.98;5.68;;;;;;;17.15;55.76;94367.78;5042907;28;20193;-77
2022/10/01 06:33:11;;;;;;;12.07;5.25;;;;;;;17.40;56.50;94398.06;5047294;28;20020;-77
2022/10/01 06:35:48;;;;;;;10.10;5.15;;;;;;;17.38;56.42;94378.00;5054217;28;20025;-76
2022/10/01 06:38:15;;;;;;;9.82;6.32;;;;;;;17.52;55.33;94371.09;5045368;28;20178;-76
2022/10/01 06:40:41;;;;;;;9.35;6.18;;;;;;;17.54;54.70;94350.03;5057823;28;20430;-77
2022/10/01 06:43:07;;;;;;;9.05;6.35;;;;;;;17.70;54.52;94390.41;5042209;28;20484;-77
2022/10/01 06:45:37;;;;;;;11.13;5.93;;;;;;;17.70;54.61;94382.31;5045636;28;20033;-77
2022/10/01 06:48:03;;;;;;;8.18;5.72;;;;;;;17.72;54.48;94339.72;5051211;28;20025;-77
2022/10/01 06:50:31;;;;;;;6.32;5.22;;;;;;;17.84;54.99;94350.44;5049516;28;20581;-76
2022/10/01 06:52:57;;;;;;;14.32;5.88;;;;;;;17.81;55.15;94359.19;5050666;28;20368;-77
2022/10/01 06:55:34;;;;;;;7.65;5.25;;;;;;;17.57;54.19;94311.69;5047697;28;20138;-77
2022/10/01 06:58:05;;;;;;;7.38;5.18;;;;;;;17.68;54.34;94321.94;5051556;28;20020;-77
2022/10/01 07:00:32;;;;;;;11.73;5.18;;;;;;;17.92;54.25;94362.94;5049611;28;20455;-77
2022/10/01 07:02:59;;;;;;;10.43;5.28;;;;;;;17.96;54.71;94355.75;5050339;28;20433;-77
2022/10/01 07:05:25;;;;;;;6.75;4.75;;;;;;;18.11;54.64;94364.19;5047149;28;20094;-76
2022/10/01 07:07:51;;;;;;;6.90;4.90;;;;;;;18.15;54.15;94373.91;5046066;28;20040;-77
2022/10/01 07:10:19;;;;;;;8.38;4.00;;;;;;;17.87;53.32;94368.56;5046295;28;20032;-77
2022/10/01 07:12:47;;;;;;;8.52;4.55;;;;;;;18.06;53.19;94388.66;5048697;28;20478;-76
2022/10/01 07:15:14;;;;;;;7.15;4.75;;;;;;;18.11;52.64;94388.41;5050268;28;20116;-76
2022/10/01 07:17:45;;;;;;;5.47;4.35;;;;;;;18.15;53.53;94360.44;5049904;28;20059;-76
2022/10/01 07:20:11;;;;;;;12.15;4.47;;;;;;;18.32;53.16;94413.19;5055178;28;20028;-77
2022/10/01 07:22:37;;;;;;;6.03;3.97;;;;;;;18.38;52.60;94401.03;5048272;28;20051;-77
2022/10/01 07:25:03;;;;;;;7.35;4.38;;;;;;;18.45;52.07;94395.81;5051131;28;20029;-77
2022/10/01 07:27:28;;;;;;;7.28;4.25;;;;;;;18.44;52.19;94383.47;5049163;28;20642;-76
2022/10/01 07:29:57;;;;;;;6.93;4.60;;;;;;;18.60;51.82;94397.72;5056501;28;20029;-76
2022/10/01 07:32:23;;;;;;;9.38;4.90;;;;;;;18.50;51.85;94360.53;5050102;28;20036;-77
2022/10/01 07:34:49;;;;;;;6.03;3.53;;;;;;;18.70;50.60;94378.34;5050066;28;20349;-76
2022/10/01 07:37:14;;;;;;;5.50;4.25;;;;;;;18.76;51.78;94386.94;5050314;28;20020;-76
2022/10/01 07:39:40;;;;;;;4.35;3.08;;;;;;;18.73;51.25;94364.16;5052555;28;20025;-77
2022/10/01 07:42:05;;;;;;;6.68;4.47;;;;;;;18.70;50.39;94359.47;5049633;28;20024;-77
2022/10/01 07:44:30;;;;;;;4.75;3.40;;;;;;;18.71;51.36;94344.88;5048632;28;20115;-77
2022/10/01 07:46:56;;;;;;;5.15;3.38;;;;;;;18.92;50.90;94368.06;5049755;28;20029;-77
2022/10/01 07:49:24;;;;;;;6.55;3.67;;;;;;;18.96;51.72;94371.59;5049331;28;20033;-77
2022/10/01 07:51:50;;;;;;;6.47;3.70;;;;;;;18.99;50.68;94357.41;5050484;28;20513;-76
2022/10/01 07:54:15;;;;;;;6.30;3.70;;;;;;;19.07;50.26;94383.38;5051277;28;20033;-77
2022/10/01 07:56:41;;;;;;;4.25;3.05;;;;;;;18.95;51.27;94353.84;5048831;28;20602;-77
2022/10/01 07:59:08;;;;;;;8.00;3.85;;;;;;;19.00;49.79;94367.06;5049275;28;20036;-77
2022/10/01 08:01:34;;;;;;;5.53;3.20;;;;;;;18.98;48.48;94363.94;5049941;28;20048;-76
2022/10/01 08:04:00;;;;;;;6.20;3.95;;;;;;;19.16;49.25;94375.88;5053181;28;20099;-77
2022/10/01 08:06:25;;;;;;;4.90;3.63;;;;;;;18.99;49.06;94333.94;5049335;28;20395;-77
2022/10/01 08:08:51;;;;;;;8.05;3.97;;;;;;;19.28;48.27;94357.66;5050740;28;20063;-77
2022/10/01 08:11:17;;;;;;;3.83;3.40;;;;;;;18.97;48.37;94298.44;5052792;28;20040;-77
2022/10/01 08:13:46;;;;;;;5.47;4.03;;;;;;;19.30;48.80;94339.22;5049247;28;20031;-76
2022/10/01 08:16:12;;;;;;;5.90;4.07;;;;;;;19.33;48.77;94327.69;5051759;28;20067;-76
2022/10/01 08:18:41;;;;;;;5.15;3.50;;;;;;;19.20;48.02;94306.63;5056963;28;20028;-77
2022/10/01 08:21:07;;;;;;;6.32;3.90;;;;;;;19.28;49.46;94329.91;5048216;28;20283;-77
2022/10/01 08:23:33;;;;;;;6.28;4.05;;;;;;;19.14;49.20;94297.25;5049857;28;20053;-77
2022/10/01 08:26:00;;;;;;;5.97;4.97;;;;;;;19.27;48.61;94318.31;5049365;28;20036;-77
2022/10/01 08:28:26;;;;;;;5.65;3.20;;;;;;;19.25;49.92;94314.44;5050452;28;20028;-77
2022/10/01 08:30:51;;;;;;;5.82;3.63;;;;;;;19.17;49.68;94296.53;5048787;28;20446;-77
2022/10/01 08:33:17;;;;;;;9.15;3.40;;;;;;;19.30;48.25;94306.06;5048816;28;20036;-77
2022/10/01 08:35:42;;;;;;;5.38;3.90;;;;;;;19.11;47.96;94276.41;5047902;28;20118;-77
2022/10/01 08:38:08;;;;;;;9.95;4.03;;;;;;;19.23;47.77;94303.22;5048263;28;20095;-77
2022/10/01 08:40:39;;;;;;;7.80;4.40;;;;;;;19.15;48.16;94304.22;5055885;28;20453;-77
2022/10/01 08:43:06;;;;;;;11.38;3.72;;;;;;;19.02;49.12;94324.38;5053578;28;20035;-76
2022/10/01 08:45:45;;;;;;;10.02;3.90;;;;;;;19.14;49.34;94335.78;5045147;28;20546;-77
2022/10/01 08:48:32;;;;;;;9.73;4.20;;;;;;;19.16;49.85;94328.13;5044050;28;20507;-76
2022/10/01 08:51:37;;;;;;;6.32;4.25;;;;;;;19.15;49.08;94325.78;5052265;28;20032;-77
2022/10/01 08:54:28;;;;;;;4.50;3.40;;;;;;;19.11;49.09;94287.97;5048845;28;20017;-76
2022/10/01 08:56:56;;;;;;;6.45;3.45;;;;;;;18.98;49.48;94293.84;5047550;28;20502;-77
2022/10/01 08:59:36;;;;;;;6.35;3.83;;;;;;;19.09;49.63;94306.41;5050851;28;20529;-77
2022/10/01 09:02:13;;;;;;;9.52;3.90;;;;;;;19.12;49.83;94321.88;5050232;28;20024;-76
2022/10/01 09:04:38;;;;;;;10.95;4.32;;;;;;;18.98;50.87;94347.75;5044180;28;20032;-76
2022/10/01 09:07:22;;;;;;;10.45;4.90;;;;;;;19.07;50.12;94357.19;5045079;28;20390;-77
2022/10/01 09:10:03;;;;;;;5.45;4.10;;;;;;;19.08;50.05;94363.38;5043781;28;20391;-78
2022/10/01 09:12:52;;;;;;;13.00;5.47;;;;;;;19.17;50.80;94347.75;5055393;28;20021;-76
2022/10/01 09:15:26;;;;;;;8.05;4.40;;;;;;;18.96;50.57;94409.34;5045516;28;20398;-77
2022/10/01 09:18:13;;;;;;;7.50;4.47;;;;;;;18.82;51.00;94389.00;5050185;28;20122;-77
2022/10/01 09:20:44;;;;;;;5.15;4.03;;;;;;;18.81;52.23;94427.88;5052442;28;20032;-77
2022/10/01 09:23:21;;;;;;;4.63;3.40;;;;;;;18.79;51.85;94395.09;5042231;28;20036;-77
2022/10/01 09:25:49;;;;;;;5.80;3.58;;;;;;;18.95;53.17;94410.47;5043973;28;20021;-77
2022/10/01 09:28:20;;;;;;;5.13;4.28;;;;;;;18.89;52.76;94397.25;5046087;28;20036;-77
2022/10/01 09:30:54;;;;;;;7.72;3.70;;;;;;;18.74;54.77;94375.72;5042777;28;20044;-77
2022/10/01 09:33:21;;;;;;;5.22;4.45;;;;;;;18.83;56.21;94409.44;5044534;28;20033;-77
2022/10/01 09:36:03;;;;;;;6.22;4.72;;;;;;;18.86;56.92;94399.88;5041704;28;20227;-77
2022/10/01 09:38:51;;;;;;;5.60;4.22;;;;;;;18.95;56.30;94413.16;5044705;28;20016;-77
2022/10/01 09:41:18;;;;;;;7.90;5.10;;;;;;;18.82;56.94;94385.56;5045156;28;20043;-77
2022/10/01 09:43:43;;;;;;;10.45;4.53;;;;;;;18.79;57.80;94405.09;5042847;28;20033;-78
2022/10/01 09:46:14;;;;;;;8.45;4.88;;;;;;;18.92;58.28;94413.88;5044545;28;20025;-77
2022/10/01 09:48:45;;;;;;;5.63;4.28;;;;;;;18.83;58.84;94400.56;5044048;28;20052;-76
2022/10/01 09:51:16;;;;;;;4.50;4.10;;;;;;;18.59;56.17;94385.38;5047673;28;20029;-77
2022/10/01 09:53:50;;;;;;;5.70;3.40;;;;;;;18.54;56.55;94357.91;5043253;28;20575;-76
2022/10/01 09:56:24;;;;;;;9.90;5.80;;;;;;;18.45;55.95;94360.78;5052450;28;20059;-76
2022/10/01 09:58:55;;;;;;;4.40;3.53;;;;;;;18.33;56.34;94323.97;5043961;28;20035;-76
2022/10/01 10:01:42;;;;;;;6.97;4.47;;;;;;;18.38;57.90;94339.84;5044297;28;20430;-77
2022/10/01 10:04:08;;;;;;;10.70;5.00;;;;;;;17.99;56.50;94309.31;5043864;28;20145;-76
2022/10/01 10:06:33;;;;;;;6.03;4.65;;;;;;;18.03;56.46;94339.81;5044691;28;20016;-77
2022/10/01 10:09:01;;;;;;;5.88;5.18;;;;;;;18.04;56.96;94327.88;5043259;28;20035;-77
2022/10/01 10:11:29;;;;;;;6.53;5.57;;;;;;;18.22;56.61;94327.56;5044058;28;20020;-76
2022/10/01 10:14:02;;;;;;;7.60;6.10;;;;;;;18.14;57.42;94315.81;5042256;28;20027;-77
2022/10/01 10:16:33;;;;;;;13.13;10.27;;;;;;;17.83;58.75;94380.38;5045705;28;20020;-76
2022/10/01 10:19:08;;;;;;;10.23;6.93;;;;;;;17.92;59.85;94391.75;5045255;28;20070;-77
2022/10/01 10:21:33;;;;;;;8.60;5.93;;;;;;;18.19;60.13;94374.78;5044038;28;20475;-76
2022/10/01 10:24:20;;;;;;;11.68;6.47;;;;;;;18.33;60.56;94361.66;5047458;28;20032;-77
2022/10/01 10:26:53;;;;;;;9.50;5.90;;;;;;;18.41;61.34;94373.41;5049173;28;20126;-76
2022/10/01 10:29:29;;;;;;;11.93;7.60;;;;;;;18.46;61.22;94360.44;5051545;28;20032;-77
2022/10/01 10:31:55;;;;;;;10.63;7.10;;;;;;;18.52;61.08;94360.19;5047325;28;20056;-76
2022/10/01 10:34:35;;;;;;;10.90;6.00;;;;;;;18.50;61.49;94354.34;5050035;28;20114;-77
2022/10/01 10:37:06;;;;;;;16.63;8.40;;;;;;;17.99;61.18;94368.50;5045275;28;20027;-77
2022/10/01 10:39:35;;;;;;;11.00;7.18;;;;;;;18.16;61.02;94362.03;5048568;28;20032;-77
2022/10/01 10:42:02;;;;;;;10.10;6.55;;;;;;;18.43;60.55;94377.28;5046535;28;20029;-76
2022/10/01 10:44:35;;;;;;;11.63;6.07;;;;;;;18.55;61.71;94384.50;5049063;28;20098;-77
2022/10/01 10:47:04;;;;;;;8.52;5.50;;;;;;;18.30;59.94;94319.28;5045945;28;20021;-77
2022/10/01 10:49:32;;;;;;;9.18;5.93;;;;;;;18.51;59.12;94329.78;5050729;28;20032;-77
2022/10/01 10:51:59;;;;;;;6.22;5.18;;;;;;;18.70;61.10;94364.88;5044935;28;20104;-77
2022/10/01 10:54:39;;;;;;;6.13;5.05;;;;;;;18.62;60.56;94344.28;5048787;28;20079;-77
2022/10/01 10:57:22;;;;;;;5.38;4.20;;;;;;;18.54;59.24;94302.13;5046641;28;20027;-77
2022/10/01 10:59:59;;;;;;;5.55;3.72;;;;;;;18.79;60.75;94335.81;5049356;28;21104;-76
2022/10/01 11:02:28;;;;;;;4.88;4.13;;;;;;;18.77;61.50;94311.13;5049549;28;20112;-77
2022/10/01 11:04:56;;;;;;;8.25;5.25;;;;;;;18.76;59.19;94314.97;5044509;28;21021;-76
2022/10/01 11:07:24;;;;;;;7.18;4.40;;;;;;;18.65;58.45;94303.16;5047047;28;20063;-77
2022/10/01 11:09:59;;;;;;;6.85;4.38;;;;;;;18.59;60.53;94307.25;5046646;28;20043;-76
2022/10/01 11:12:39;;;;;;;7.43;5.90;;;;;;;18.45;61.40;94285.38;5046778;28;20039;-77
2022/10/01 11:15:14;;;;;;;8.32;5.13;;;;;;;18.31;61.64;94269.69;5043426;28;20135;-76
2022/10/01 11:18:09;;;;;;;9.75;6.35;;;;;;;18.34;63.15;94260.13;5046828;28;20364;-77
2022/10/01 11:21:09;;;;;;;7.35;4.43;;;;;;;18.35;62.91;94250.91;5053614;28;20036;-77
2022/10/01 11:24:01;;;;;;;5.72;3.75;;;;;;;18.38;61.69;94232.13;5048149;28;20262;-76
2022/10/01 11:26:48;;;;;;;7.15;3.80;;;;;;;18.28;62.76;94237.31;5053213;28;20475;-76
2022/10/01 11:29:39;;;;;;;5.47;3.67;;;;;;;18.05;64.86;94264.06;5046590;28;20036;-77
2022/10/01 11:32:28;;;;;;;5.90;3.15;;;;;;;18.07;64.86;94250.28;5049147;28;20359;-77
2022/10/01 11:35:27;;;;;;;7.05;3.08;;;;;;;18.00;64.21;94251.66;5047832;28;20033;-77
2022/10/01 11:37:59;;;;;;;4.88;3.00;;;;;;;18.29;64.15;94258.47;5047515;28;20044;-76
2022/10/01 11:40:32;;;;;;;4.22;2.72;;;;;;;18.44;64.24;94251.50;5048245;28;20064;-77
2022/10/01 11:43:13;;;;;;;4.68;3.92;;;;;;;18.53;64.67;94227.09;5046389;28;20060;-77
2022/10/01 11:45:46;;;;;;;5.95;3.38;;;;;;;18.62;64.87;94201.50;5044418;28;20024;-77